METAR Data
IDs: Format: Raw Decoded Include TAF

Data at: 0904 UTC 20 Sep 2018

KJKA 200855Z AUTO 00000KT 2SM BR BKN022 BKN029 24/24 A2997 RMK AO2 T02350235
KJKA 200835Z AUTO 00000KT 1SM BR BKN024 23/23 A2997 RMK AO2 T02330233
KJKA 200815Z AUTO 00000KT 5SM BR CLR 24/24 A2997 RMK AO2 T02350235
KJKA 200755Z AUTO 00000KT 4SM BR CLR 24/24 A2997 RMK AO2 T02350235
KJKA 200735Z AUTO 00000KT 7SM CLR 24/24 A2997 RMK AO2 T02360236
KJKA 200715Z AUTO 00000KT 7SM SCT022 23/23 A2997 RMK AO2 T02310231
KJKA 200655Z AUTO 00000KT 5SM BR SCT021 23/23 A2997 RMK AO2 T02300230
KJKA 200635Z AUTO 00000KT 4SM BR CLR 24/24 A2997 RMK AO2 T02350235
KJKA 200615Z AUTO 00000KT 5SM BR CLR 24/24 A2997 RMK AO2 T02390239
KJKA 200555Z AUTO 00000KT 1 1/2SM BR VV007 24/24 A2998 RMK AO2 T02400240 10275 20239
KJKA 200535Z AUTO 00000KT 3/4SM BR VV005 24/24 A2998 RMK AO2 VIS 1/2V5 T02400240
KJKA 200515Z AUTO 00000KT 4SM BR CLR 24/24 A2998 RMK AO2 T02400240
KJKA 200455Z AUTO 00000KT 4SM BR CLR 24/24 A2998 RMK AO2 T02420242 403260226
KJKA 200435Z AUTO 00000KT 5SM BR CLR 24/24 A2998 RMK AO2 T02420242
KJKA 200415Z AUTO 00000KT 7SM CLR 24/24 A2999 RMK AO2 T02420242
KJKA 200355Z AUTO 00000KT 7SM CLR 24/24 A2999 RMK AO2 T02400240
KJKA 200335Z AUTO 00000KT 10SM CLR 24/24 A2999 RMK AO2 T02430241
KJKA 200315Z AUTO 00000KT 10SM CLR 25/25 A2998 RMK AO2 T02450245
KJKA 200255Z AUTO 00000KT 10SM CLR 25/24 A2998 RMK AO2 T02450243
KJKA 200235Z AUTO 00000KT 10SM CLR 25/25 A2998 RMK AO2 T02480245
KJKA 200215Z AUTO 00000KT 10SM CLR 25/24 A2997 RMK AO2 T02480243
KJKA 200155Z AUTO 00000KT 10SM CLR 25/25 A2996 RMK AO2 T02490245
KJKA 200135Z AUTO 00000KT 10SM SCT055 25/25 A2995 RMK AO2 T02520246
KJKA 200115Z AUTO 00000KT 10SM CLR 26/25 A2995 RMK AO2 T02570249
KJKA 200055Z AUTO 00000KT 10SM CLR 26/24 A2994 RMK AO2 T02560244
KJKA 200035Z AUTO 00000KT 10SM CLR 25/25 A2993 RMK AO2 T02540245
KJKA 200015Z AUTO 00000KT 10SM CLR 27/24 A2992 RMK AO2 T02670240
KJKA 192355Z AUTO 00000KT 10SM CLR 28/24 A2993 RMK AO2 60008 T02780240 10322 20278
KJKA 192335Z AUTO 15003KT 10SM CLR 29/24 A2993 RMK AO2 T02850238
KJKA 192315Z AUTO 17004KT 10SM CLR 29/24 A2993 RMK AO2 T02920236
KJKA 192255Z AUTO 13005KT 10SM CLR 30/23 A2992 RMK AO2 T02960234
KJKA 192235Z AUTO 15006KT 10SM CLR 30/23 A2992 RMK AO2 T03000232
KJKA 192215Z AUTO 14008KT 120V200 10SM CLR 30/24 A2992 RMK AO2 T03010236
KJKA 192155Z AUTO 16008KT 120V210 10SM CLR 30/24 A2992 RMK AO2 T03020237
KJKA 192130Z AUTO 15006KT 10SM CLR 31/24 A2992 RMK AO2 T03060241
KJKA 192115Z AUTO 14008G16KT 120V190 10SM CLR 31/24 A2992 RMK AO2 T03080237
KJKA 192055Z AUTO 15006G17KT 10SM CLR 31/24 A2992 RMK AO2 60008 T03090238
KJKA 192035Z AUTO 14009G17KT 10SM CLR 31/24 A2993 RMK AO2 T03100236
KJKA 192015Z AUTO 14007KT 120V190 10SM CLR 31/24 A2993 RMK AO2 T03120240
KJKA 191955Z AUTO 15005KT 10SM SCT120 31/24 A2993 RMK AO2 P0008 T03080244
KJKA 191935Z AUTO 15005KT 10SM -DZ SCT028 SCT035 BKN120 30/25 A2994 RMK AO2 P0008 T02950246
KJKA 191915Z AUTO 16006KT 3SM RA SCT026 BKN034 OVC080 29/24 A2995 RMK AO2 P0007 T02850243
KJKA 191855Z AUTO 19010G19KT 120V210 10SM SCT039 BKN070 OVC080 32/24 A2995 RMK AO2 T03150244
KJKA 191835Z AUTO 15008G14KT 10SM SCT039 BKN050 OVC095 32/24 A2996 RMK AO2 T03190243
KJKA 191815Z AUTO 19009G21KT 10SM SCT039 BKN049 OVC080 31/25 A2996 RMK AO2 T03060246
KJKA 191755Z AUTO 00000KT 10SM SCT035 SCT042 BKN048 30/25 A2997 RMK AO2 T03040245 10326 20230
KJKA 191735Z AUTO 12007KT 10SM SCT040 SCT049 SCT070 32/23 A2997 RMK AO2 T03170227
KJKA 191715Z AUTO 08005KT 10SM SCT038 32/23 A2998 RMK AO2 T03220233
KJKA 191655Z AUTO 34005KT 10SM CLR 32/23 A2998 RMK AO2 T03220232
KJKA 191635Z AUTO 31004KT 10SM CLR 32/23 A2999 RMK AO2 T03180232
KJKA 191615Z AUTO 02004KT 10SM CLR 32/24 A2999 RMK AO2 T03150238
KJKA 191555Z AUTO 31004KT 10SM CLR 31/24 A2999 RMK AO2 T03120241
KJKA 191535Z AUTO 32004KT 10SM CLR 31/25 A2999 RMK AO2 T03060246
KJKA 191515Z AUTO 32004KT 10SM CLR 30/25 A2999 RMK AO2 T02960246
KJKA 191455Z AUTO 32003KT 10SM CLR 29/25 A2999 RMK AO2 T02920245
KJKA 191435Z AUTO 00000KT 10SM CLR 29/24 A2999 RMK AO2 T02860241
KJKA 191415Z AUTO 00000KT 10SM SCT017 28/24 A2998 RMK AO2 T02780242
KJKA 191355Z AUTO 00000KT 10SM SCT017 SCT021 27/24 A2998 RMK AO2 T02670244
KJKA 191335Z AUTO 11003KT 10SM CLR 26/24 A2999 RMK AO2 T02630236
KJKA 191315Z AUTO 00000KT 10SM CLR 25/23 A2998 RMK AO2 T02540229
KJKA 191255Z AUTO 03004KT 10SM CLR 25/23 A2998 RMK AO2 T02450228
KJKA 191235Z AUTO 09006KT 10SM CLR 24/23 A2997 RMK AO2 LTG DSNT S T02400234
KJKA 191215Z AUTO 00000KT 10SM VCTS CLR 23/23 A2996 RMK AO2 LTG DSNT SE AND S T02340233
KJKA 191155Z AUTO 00000KT 10SM CLR 23/23 A2995 RMK AO2 LTG DSNT SE AND S 70009 T02300229 10239 20226
KJKA 191135Z AUTO 00000KT 10SM CLR 23/23 A2995 RMK AO2 LTG DSNT SE AND S T02300226
KJKA 191115Z AUTO 00000KT 10SM SCT019 SCT027 23/23 A2994 RMK AO2 T02320230
KJKA 191055Z AUTO 00000KT 10SM VCTS SCT017 SCT027 23/23 A2994 RMK AO2 LTG DSNT S AND SW T02320230
KJKA 191035Z AUTO 00000KT 10SM CLR 23/23 A2994 RMK AO2 T02300229
KJKA 191015Z AUTO 00000KT 10SM CLR 23/23 A2993 RMK AO2 LTG DSNT SW T02290226
KJKA 190955Z AUTO 00000KT 10SM CLR 23/23 A2993 RMK AO2 T02310227
KJKA 190935Z AUTO 00000KT 10SM CLR 23/23 A2992 RMK AO2 T02300228
KJKA 190915Z AUTO 00000KT 10SM CLR 23/23 A2992 RMK AO2 T02270225
KJKA 190855Z AUTO 00000KT 10SM CLR 23/23 A2991 RMK AO2 T02310227
KJKA 190835Z AUTO 00000KT 10SM CLR 24/23 A2991 RMK AO2 T02360230
KJKA 190810Z AUTO 00000KT 10SM SCT019 24/23 A2992 RMK AO2 T02350232
KJKA 190755Z AUTO 00000KT 10SM CLR 24/23 A2992 RMK AO2 T02350234
KJKA 190735Z AUTO 00000KT 10SM CLR 24/23 A2992 RMK AO2 T02350231
KJKA 190715Z AUTO 00000KT 10SM SCT021 23/23 A2992 RMK AO2 T02330230
KJKA 190655Z AUTO 00000KT 10SM CLR 23/23 A2992 RMK AO2 T02320232
KJKA 190635Z AUTO 00000KT 10SM CLR 24/23 A2993 RMK AO2 T02350232
KJKA 190615Z AUTO 00000KT 10SM CLR 24/23 A2993 RMK AO2 T02370232
KJKA 190555Z AUTO 00000KT 10SM CLR 24/23 A2994 RMK AO2 T02400233 10281 20236
KJKA 190535Z AUTO 00000KT 10SM CLR 24/23 A2993 RMK AO2 T02400229
KJKA 190515Z AUTO 00000KT 10SM CLR 24/23 A2993 RMK AO2 T02370228
KJKA 190455Z AUTO 00000KT 10SM CLR 24/23 A2994 RMK AO2 T02380230 403250231
KJKA 190435Z AUTO 00000KT 10SM CLR 24/23 A2994 RMK AO2 T02390232
KJKA 190415Z AUTO 00000KT 10SM CLR 24/24 A2994 RMK AO2 T02410235
KJKA 190355Z AUTO 00000KT 10SM CLR 24/24 A2994 RMK AO2 T02430238
KJKA 190335Z AUTO 00000KT 10SM CLR 25/24 A2994 RMK AO2 T02450240
KJKA 190315Z AUTO 00000KT 10SM CLR 25/24 A2994 RMK AO2 T02450237
KJKA 190255Z AUTO 00000KT 10SM CLR 25/24 A2994 RMK AO2 T02510237
KJKA 190235Z AUTO 00000KT 10SM CLR 25/24 A2994 RMK AO2 T02480240
KJKA 190215Z AUTO 00000KT 10SM CLR 25/24 A2993 RMK AO2 T02530240
KJKA 190155Z AUTO 00000KT 10SM SCT100 26/24 A2993 RMK AO2 T02570241
KJKA 190135Z AUTO 00000KT 10SM SCT100 26/24 A2992 RMK AO2 T02600240
KJKA 190115Z AUTO 00000KT 10SM CLR 26/24 A2992 RMK AO2 T02590240
KJKA 190055Z AUTO 00000KT 10SM CLR 26/24 A2992 RMK AO2 T02600237
KJKA 190035Z AUTO 00000KT 10SM SCT032 27/24 A2991 RMK AO2 LTG DSNT W T02670238
KJKA 190015Z AUTO 30006KT 10SM BKN032 28/24 A2992 RMK AO2 T02780238
KJKA 182355Z AUTO 00000KT 10SM CLR 28/24 A2991 RMK AO2 T02810241 10325 20281
KJKA 182335Z AUTO 18003KT 10SM CLR 29/24 A2990 RMK AO2 LTG DSNT NW T02900241
KJKA 182315Z AUTO 12006KT 10SM CLR 30/24 A2990 RMK AO2 T03000236
KJKA 182255Z AUTO 12005KT 10SM CLR 31/23 A2991 RMK AO2 T03050233
KJKA 182235Z AUTO 23005KT 10SM CLR 31/23 A2990 RMK AO2 LTG DSNT N T03080234
KJKA 182215Z AUTO 23007KT 10SM CLR 31/23 A2989 RMK AO2 LTG DSNT NW T03120233
KJKA 182155Z AUTO 19005KT 10SM CLR 32/24 A2990 RMK AO2 LTG DSNT NE T03150235
KJKA 182135Z AUTO 21007KT 110V220 10SM CLR 32/24 A2990 RMK AO2 LTG DSNT NE AND NW T03150235
KJKA 182115Z AUTO 22008KT 10SM CLR 32/24 A2989 RMK AO2 LTG DSNT N T03190238